sensor_id;sensor_type;location;lat;lon;timestamp;P1;durP1;ratioP1;P2;durP2;ratioP2
2720;SDS011;1368;49.484;11.112;2023-04-03T00:01:11;5.10;;;3.40;;
2720;SDS011;1368;49.484;11.112;2023-04-03T00:03:37;5.00;;;3.57;;
2720;SDS011;1368;49.484;11.112;2023-04-03T00:06:03;4.20;;;3.50;;
2720;SDS011;1368;49.484;11.112;2023-04-03T00:08:30;4.90;;;3.40;;
2720;SDS011;1368;49.484;11.112;2023-04-03T00:10:57;4.83;;;3.60;;
2720;SDS011;1368;49.484;11.112;2023-04-03T00:13:23;5.73;;;3.13;;
2720;SDS011;1368;49.484;11.112;2023-04-03T00:15:48;5.00;;;3.57;;
2720;SDS011;1368;49.484;11.112;2023-04-03T00:18:14;5.20;;;3.57;;
2720;SDS011;1368;49.484;11.112;2023-04-03T00:20:40;5.83;;;3.40;;
2720;SDS011;1368;49.484;11.112;2023-04-03T00:23:06;5.23;;;3.70;;
2720;SDS011;1368;49.484;11.112;2023-04-03T00:25:32;5.30;;;3.40;;
2720;SDS011;1368;49.484;11.112;2023-04-03T00:27:58;4.00;;;2.97;;
2720;SDS011;1368;49.484;11.112;2023-04-03T00:30:24;5.87;;;3.20;;
2720;SDS011;1368;49.484;11.112;2023-04-03T00:32:50;5.13;;;3.60;;
2720;SDS011;1368;49.484;11.112;2023-04-03T00:35:17;6.73;;;3.53;;
2720;SDS011;1368;49.484;11.112;2023-04-03T00:37:43;5.10;;;3.07;;
2720;SDS011;1368;49.484;11.112;2023-04-03T00:40:10;5.03;;;2.70;;
2720;SDS011;1368;49.484;11.112;2023-04-03T00:42:36;4.90;;;3.20;;
2720;SDS011;1368;49.484;11.112;2023-04-03T00:47:29;5.10;;;3.83;;
2720;SDS011;1368;49.484;11.112;2023-04-03T00:49:55;5.90;;;4.13;;
2720;SDS011;1368;49.484;11.112;2023-04-03T00:52:23;6.03;;;4.07;;
2720;SDS011;1368;49.484;11.112;2023-04-03T00:54:54;8.20;;;4.77;;
2720;SDS011;1368;49.484;11.112;2023-04-03T00:57:23;5.77;;;4.10;;
2720;SDS011;1368;49.484;11.112;2023-04-03T00:59:50;9.70;;;5.00;;
2720;SDS011;1368;49.484;11.112;2023-04-03T01:02:20;6.50;;;4.60;;
2720;SDS011;1368;49.484;11.112;2023-04-03T01:04:45;5.97;;;4.60;;
2720;SDS011;1368;49.484;11.112;2023-04-03T01:07:13;6.50;;;4.70;;
2720;SDS011;1368;49.484;11.112;2023-04-03T01:09:46;8.67;;;5.47;;
2720;SDS011;1368;49.484;11.112;2023-04-03T01:12:17;9.50;;;5.50;;
2720;SDS011;1368;49.484;11.112;2023-04-03T01:14:43;6.60;;;4.57;;
2720;SDS011;1368;49.484;11.112;2023-04-03T01:17:24;6.50;;;4.60;;
2720;SDS011;1368;49.484;11.112;2023-04-03T01:26:00;5.40;;;4.00;;
2720;SDS011;1368;49.484;11.112;2023-04-03T01:28:27;4.73;;;3.87;;
2720;SDS011;1368;49.484;11.112;2023-04-03T01:33:51;4.50;;;3.80;;
2720;SDS011;1368;49.484;11.112;2023-04-03T01:36:19;4.63;;;3.60;;
2720;SDS011;1368;49.484;11.112;2023-04-03T01:38:47;5.97;;;3.37;;
2720;SDS011;1368;49.484;11.112;2023-04-03T01:41:14;8.70;;;4.00;;
2720;SDS011;1368;49.484;11.112;2023-04-03T01:43:40;4.50;;;3.87;;
2720;SDS011;1368;49.484;11.112;2023-04-03T01:46:06;5.00;;;4.03;;
2720;SDS011;1368;49.484;11.112;2023-04-03T01:48:32;4.70;;;4.20;;
2720;SDS011;1368;49.484;11.112;2023-04-03T01:50:58;4.93;;;3.63;;
2720;SDS011;1368;49.484;11.112;2023-04-03T01:53:24;4.57;;;3.47;;
2720;SDS011;1368;49.484;11.112;2023-04-03T01:55:49;6.23;;;4.03;;
2720;SDS011;1368;49.484;11.112;2023-04-03T01:58:15;4.50;;;3.60;;
2720;SDS011;1368;49.484;11.112;2023-04-03T02:00:41;6.07;;;4.40;;
2720;SDS011;1368;49.484;11.112;2023-04-03T02:03:06;6.50;;;4.10;;
2720;SDS011;1368;49.484;11.112;2023-04-03T02:05:32;5.20;;;4.30;;
2720;SDS011;1368;49.484;11.112;2023-04-03T02:07:58;5.23;;;3.97;;
2720;SDS011;1368;49.484;11.112;2023-04-03T02:10:23;5.93;;;4.30;;
2720;SDS011;1368;49.484;11.112;2023-04-03T02:12:49;4.50;;;3.50;;
2720;SDS011;1368;49.484;11.112;2023-04-03T02:15:15;4.70;;;3.77;;
2720;SDS011;1368;49.484;11.112;2023-04-03T02:17:41;4.20;;;3.80;;
2720;SDS011;1368;49.484;11.112;2023-04-03T02:20:07;8.80;;;4.20;;
2720;SDS011;1368;49.484;11.112;2023-04-03T02:22:33;6.07;;;4.23;;
2720;SDS011;1368;49.484;11.112;2023-04-03T02:24:59;5.80;;;4.30;;
2720;SDS011;1368;49.484;11.112;2023-04-03T02:27:25;3.87;;;3.43;;
2720;SDS011;1368;49.484;11.112;2023-04-03T02:29:51;6.50;;;4.43;;
2720;SDS011;1368;49.484;11.112;2023-04-03T02:32:16;5.57;;;4.30;;
2720;SDS011;1368;49.484;11.112;2023-04-03T02:34:42;5.50;;;3.40;;
2720;SDS011;1368;49.484;11.112;2023-04-03T02:37:07;6.47;;;4.90;;
2720;SDS011;1368;49.484;11.112;2023-04-03T02:39:33;5.53;;;4.37;;
2720;SDS011;1368;49.484;11.112;2023-04-03T02:41:59;4.73;;;3.63;;
2720;SDS011;1368;49.484;11.112;2023-04-03T02:44:25;5.70;;;4.10;;
2720;SDS011;1368;49.484;11.112;2023-04-03T02:46:50;5.83;;;4.23;;
2720;SDS011;1368;49.484;11.112;2023-04-03T02:49:16;6.70;;;4.30;;
2720;SDS011;1368;49.484;11.112;2023-04-03T02:51:41;7.10;;;3.90;;
2720;SDS011;1368;49.484;11.112;2023-04-03T02:54:07;6.43;;;3.80;;
2720;SDS011;1368;49.484;11.112;2023-04-03T02:56:33;5.47;;;3.90;;
2720;SDS011;1368;49.484;11.112;2023-04-03T02:58:59;6.70;;;3.50;;
2720;SDS011;1368;49.484;11.112;2023-04-03T03:01:24;6.33;;;4.40;;
2720;SDS011;1368;49.484;11.112;2023-04-03T03:03:53;8.60;;;4.37;;
2720;SDS011;1368;49.484;11.112;2023-04-03T03:06:19;6.63;;;4.63;;
2720;SDS011;1368;49.484;11.112;2023-04-03T03:08:45;7.10;;;4.80;;
2720;SDS011;1368;49.484;11.112;2023-04-03T03:11:10;6.10;;;3.90;;
2720;SDS011;1368;49.484;11.112;2023-04-03T03:13:36;9.13;;;6.17;;
2720;SDS011;1368;49.484;11.112;2023-04-03T03:16:02;6.10;;;4.73;;
2720;SDS011;1368;49.484;11.112;2023-04-03T03:18:28;8.43;;;5.30;;
2720;SDS011;1368;49.484;11.112;2023-04-03T03:20:55;7.97;;;4.27;;
2720;SDS011;1368;49.484;11.112;2023-04-03T03:23:22;6.50;;;4.67;;
2720;SDS011;1368;49.484;11.112;2023-04-03T03:25:53;10.03;;;4.80;;
2720;SDS011;1368;49.484;11.112;2023-04-03T03:28:20;5.47;;;4.50;;
2720;SDS011;1368;49.484;11.112;2023-04-03T03:30:45;6.63;;;5.03;;
2720;SDS011;1368;49.484;11.112;2023-04-03T03:33:11;5.77;;;5.17;;
2720;SDS011;1368;49.484;11.112;2023-04-03T03:35:37;7.90;;;5.47;;
2720;SDS011;1368;49.484;11.112;2023-04-03T03:38:03;8.07;;;4.53;;
2720;SDS011;1368;49.484;11.112;2023-04-03T03:40:28;6.03;;;4.70;;
2720;SDS011;1368;49.484;11.112;2023-04-03T03:42:54;6.90;;;4.40;;
2720;SDS011;1368;49.484;11.112;2023-04-03T03:45:19;8.80;;;4.20;;
2720;SDS011;1368;49.484;11.112;2023-04-03T03:47:45;6.17;;;4.53;;
2720;SDS011;1368;49.484;11.112;2023-04-03T03:50:11;8.67;;;4.97;;
2720;SDS011;1368;49.484;11.112;2023-04-03T03:52:36;8.90;;;5.40;;
2720;SDS011;1368;49.484;11.112;2023-04-03T03:55:02;8.77;;;6.03;;
2720;SDS011;1368;49.484;11.112;2023-04-03T03:57:28;8.33;;;5.70;;
2720;SDS011;1368;49.484;11.112;2023-04-03T03:59:53;9.70;;;6.20;;
2720;SDS011;1368;49.484;11.112;2023-04-03T04:02:19;8.20;;;5.03;;
2720;SDS011;1368;49.484;11.112;2023-04-03T04:04:45;8.07;;;5.30;;
2720;SDS011;1368;49.484;11.112;2023-04-03T04:07:11;6.30;;;4.90;;
2720;SDS011;1368;49.484;11.112;2023-04-03T04:09:37;8.17;;;5.90;;
2720;SDS011;1368;49.484;11.112;2023-04-03T04:12:03;9.60;;;6.30;;
2720;SDS011;1368;49.484;11.112;2023-04-03T04:14:28;8.80;;;5.60;;
2720;SDS011;1368;49.484;11.112;2023-04-03T04:16:54;7.60;;;5.57;;
2720;SDS011;1368;49.484;11.112;2023-04-03T04:19:19;9.23;;;5.60;;
2720;SDS011;1368;49.484;11.112;2023-04-03T04:21:45;8.07;;;5.87;;
2720;SDS011;1368;49.484;11.112;2023-04-03T04:24:10;8.77;;;5.23;;
2720;SDS011;1368;49.484;11.112;2023-04-03T04:26:36;10.10;;;5.83;;
2720;SDS011;1368;49.484;11.112;2023-04-03T04:29:02;9.97;;;5.60;;
2720;SDS011;1368;49.484;11.112;2023-04-03T04:31:27;8.93;;;5.47;;
2720;SDS011;1368;49.484;11.112;2023-04-03T04:33:53;10.30;;;5.83;;
2720;SDS011;1368;49.484;11.112;2023-04-03T04:36:18;9.70;;;5.87;;
2720;SDS011;1368;49.484;11.112;2023-04-03T04:38:44;9.93;;;6.23;;
2720;SDS011;1368;49.484;11.112;2023-04-03T04:41:10;10.47;;;6.33;;
2720;SDS011;1368;49.484;11.112;2023-04-03T04:43:36;11.20;;;5.90;;
2720;SDS011;1368;49.484;11.112;2023-04-03T04:46:08;8.33;;;6.00;;
2720;SDS011;1368;49.484;11.112;2023-04-03T04:48:36;9.10;;;6.63;;
2720;SDS011;1368;49.484;11.112;2023-04-03T04:51:02;8.37;;;6.00;;
2720;SDS011;1368;49.484;11.112;2023-04-03T04:53:28;9.13;;;5.97;;
2720;SDS011;1368;49.484;11.112;2023-04-03T04:55:54;7.40;;;5.97;;
2720;SDS011;1368;49.484;11.112;2023-04-03T04:58:20;8.83;;;6.30;;
2720;SDS011;1368;49.484;11.112;2023-04-03T05:00:45;9.00;;;5.90;;
2720;SDS011;1368;49.484;11.112;2023-04-03T05:03:11;8.07;;;6.37;;
2720;SDS011;1368;49.484;11.112;2023-04-03T05:05:37;8.53;;;7.13;;
2720;SDS011;1368;49.484;11.112;2023-04-03T05:08:03;16.47;;;7.20;;
2720;SDS011;1368;49.484;11.112;2023-04-03T05:10:29;10.57;;;7.63;;
2720;SDS011;1368;49.484;11.112;2023-04-03T05:12:56;15.03;;;7.20;;
2720;SDS011;1368;49.484;11.112;2023-04-03T05:15:22;9.27;;;6.30;;
2720;SDS011;1368;49.484;11.112;2023-04-03T05:17:47;9.90;;;6.53;;
2720;SDS011;1368;49.484;11.112;2023-04-03T05:20:13;7.87;;;6.80;;
2720;SDS011;1368;49.484;11.112;2023-04-03T05:22:39;9.30;;;6.03;;
2720;SDS011;1368;49.484;11.112;2023-04-03T05:25:04;7.97;;;6.00;;
2720;SDS011;1368;49.484;11.112;2023-04-03T05:27:30;9.23;;;5.57;;
2720;SDS011;1368;49.484;11.112;2023-04-03T05:29:56;9.50;;;6.43;;
2720;SDS011;1368;49.484;11.112;2023-04-03T05:32:23;6.27;;;5.47;;
2720;SDS011;1368;49.484;11.112;2023-04-03T05:34:50;6.87;;;5.50;;
2720;SDS011;1368;49.484;11.112;2023-04-03T05:37:15;10.57;;;6.23;;
2720;SDS011;1368;49.484;11.112;2023-04-03T05:39:41;8.13;;;6.63;;
2720;SDS011;1368;49.484;11.112;2023-04-03T05:42:07;9.33;;;5.87;;
2720;SDS011;1368;49.484;11.112;2023-04-03T05:44:33;7.33;;;5.57;;
2720;SDS011;1368;49.484;11.112;2023-04-03T05:46:59;10.30;;;5.10;;
2720;SDS011;1368;49.484;11.112;2023-04-03T05:49:24;8.90;;;6.40;;
2720;SDS011;1368;49.484;11.112;2023-04-03T05:51:50;7.40;;;5.43;;
2720;SDS011;1368;49.484;11.112;2023-04-03T05:54:24;8.40;;;5.20;;
2720;SDS011;1368;49.484;11.112;2023-04-03T05:56:51;10.33;;;6.47;;
2720;SDS011;1368;49.484;11.112;2023-04-03T05:59:17;7.83;;;4.63;;
2720;SDS011;1368;49.484;11.112;2023-04-03T06:01:44;6.77;;;4.67;;
2720;SDS011;1368;49.484;11.112;2023-04-03T06:04:09;6.90;;;4.67;;
2720;SDS011;1368;49.484;11.112;2023-04-03T06:06:48;9.27;;;4.63;;
2720;SDS011;1368;49.484;11.112;2023-04-03T06:09:19;9.20;;;5.17;;
2720;SDS011;1368;49.484;11.112;2023-04-03T06:11:46;4.80;;;4.27;;
2720;SDS011;1368;49.484;11.112;2023-04-03T06:14:12;9.50;;;4.30;;
2720;SDS011;1368;49.484;11.112;2023-04-03T06:16:38;6.37;;;4.07;;
2720;SDS011;1368;49.484;11.112;2023-04-03T06:19:04;4.90;;;4.20;;
2720;SDS011;1368;49.484;11.112;2023-04-03T06:21:31;5.60;;;4.30;;
2720;SDS011;1368;49.484;11.112;2023-04-03T06:23:56;7.50;;;5.20;;
2720;SDS011;1368;49.484;11.112;2023-04-03T06:26:22;8.30;;;4.00;;
2720;SDS011;1368;49.484;11.112;2023-04-03T06:28:47;11.20;;;4.73;;
2720;SDS011;1368;49.484;11.112;2023-04-03T06:31:13;14.93;;;5.27;;
2720;SDS011;1368;49.484;11.112;2023-04-03T06:33:38;13.03;;;4.50;;
2720;SDS011;1368;49.484;11.112;2023-04-03T06:36:04;6.93;;;4.57;;
2720;SDS011;1368;49.484;11.112;2023-04-03T06:38:31;6.33;;;4.90;;
2720;SDS011;1368;49.484;11.112;2023-04-03T06:40:59;9.83;;;4.20;;
2720;SDS011;1368;49.484;11.112;2023-04-03T06:43:25;7.07;;;4.47;;
2720;SDS011;1368;49.484;11.112;2023-04-03T06:45:51;6.50;;;4.10;;
2720;SDS011;1368;49.484;11.112;2023-04-03T06:48:17;6.83;;;5.13;;
2720;SDS011;1368;49.484;11.112;2023-04-03T06:50:42;6.77;;;3.97;;
2720;SDS011;1368;49.484;11.112;2023-04-03T06:53:08;7.47;;;4.57;;
2720;SDS011;1368;49.484;11.112;2023-04-03T06:55:34;6.40;;;4.50;;
2720;SDS011;1368;49.484;11.112;2023-04-03T06:58:00;11.63;;;4.67;;
2720;SDS011;1368;49.484;11.112;2023-04-03T07:00:26;11.77;;;5.10;;
2720;SDS011;1368;49.484;11.112;2023-04-03T07:02:52;9.90;;;4.50;;
2720;SDS011;1368;49.484;11.112;2023-04-03T07:05:18;6.50;;;4.13;;
2720;SDS011;1368;49.484;11.112;2023-04-03T07:07:44;7.10;;;4.50;;
2720;SDS011;1368;49.484;11.112;2023-04-03T07:10:09;7.40;;;4.40;;
2720;SDS011;1368;49.484;11.112;2023-04-03T07:12:36;8.33;;;4.63;;
2720;SDS011;1368;49.484;11.112;2023-04-03T07:15:02;10.13;;;4.10;;
2720;SDS011;1368;49.484;11.112;2023-04-03T07:17:29;9.67;;;4.03;;
2720;SDS011;1368;49.484;11.112;2023-04-03T07:19:55;8.83;;;4.40;;
2720;SDS011;1368;49.484;11.112;2023-04-03T07:22:20;7.30;;;4.20;;
2720;SDS011;1368;49.484;11.112;2023-04-03T07:24:46;12.70;;;4.07;;
2720;SDS011;1368;49.484;11.112;2023-04-03T07:27:11;17.47;;;4.70;;
2720;SDS011;1368;49.484;11.112;2023-04-03T07:29:37;7.67;;;4.53;;
2720;SDS011;1368;49.484;11.112;2023-04-03T07:32:03;10.20;;;5.43;;
2720;SDS011;1368;49.484;11.112;2023-04-03T07:34:30;7.27;;;4.03;;
2720;SDS011;1368;49.484;11.112;2023-04-03T07:36:56;9.73;;;5.27;;
2720;SDS011;1368;49.484;11.112;2023-04-03T07:39:21;5.23;;;3.90;;
2720;SDS011;1368;49.484;11.112;2023-04-03T07:41:47;8.30;;;4.33;;
2720;SDS011;1368;49.484;11.112;2023-04-03T07:44:12;7.80;;;4.47;;
2720;SDS011;1368;49.484;11.112;2023-04-03T07:46:38;8.10;;;4.00;;
2720;SDS011;1368;49.484;11.112;2023-04-03T07:49:04;10.50;;;4.70;;
2720;SDS011;1368;49.484;11.112;2023-04-03T07:51:29;7.90;;;5.00;;
2720;SDS011;1368;49.484;11.112;2023-04-03T07:53:55;11.00;;;4.80;;
2720;SDS011;1368;49.484;11.112;2023-04-03T07:56:21;8.90;;;4.73;;
2720;SDS011;1368;49.484;11.112;2023-04-03T07:58:47;6.33;;;4.60;;
2720;SDS011;1368;49.484;11.112;2023-04-03T08:01:13;7.80;;;4.90;;
2720;SDS011;1368;49.484;11.112;2023-04-03T08:03:39;6.60;;;5.33;;
2720;SDS011;1368;49.484;11.112;2023-04-03T08:06:05;7.57;;;5.23;;
2720;SDS011;1368;49.484;11.112;2023-04-03T08:08:33;9.00;;;5.50;;
2720;SDS011;1368;49.484;11.112;2023-04-03T08:10:59;6.60;;;4.90;;
2720;SDS011;1368;49.484;11.112;2023-04-03T08:13:27;12.43;;;4.50;;
2720;SDS011;1368;49.484;11.112;2023-04-03T08:15:53;11.73;;;4.87;;
2720;SDS011;1368;49.484;11.112;2023-04-03T08:18:19;9.10;;;5.87;;
2720;SDS011;1368;49.484;11.112;2023-04-03T08:20:46;8.13;;;4.67;;
2720;SDS011;1368;49.484;11.112;2023-04-03T08:23:12;6.37;;;4.27;;
2720;SDS011;1368;49.484;11.112;2023-04-03T08:25:42;7.50;;;4.83;;
2720;SDS011;1368;49.484;11.112;2023-04-03T08:28:08;7.63;;;4.40;;
2720;SDS011;1368;49.484;11.112;2023-04-03T08:30:35;6.43;;;4.00;;
2720;SDS011;1368;49.484;11.112;2023-04-03T08:33:03;5.00;;;3.60;;
2720;SDS011;1368;49.484;11.112;2023-04-03T08:35:29;7.30;;;3.80;;
2720;SDS011;1368;49.484;11.112;2023-04-03T08:37:54;4.80;;;3.80;;
2720;SDS011;1368;49.484;11.112;2023-04-03T08:40:21;6.67;;;4.40;;
2720;SDS011;1368;49.484;11.112;2023-04-03T08:43:30;5.93;;;3.33;;
2720;SDS011;1368;49.484;11.112;2023-04-03T08:45:53;6.97;;;3.60;;
2720;SDS011;1368;49.484;11.112;2023-04-03T08:48:24;6.00;;;3.50;;
2720;SDS011;1368;49.484;11.112;2023-04-03T08:50:55;5.63;;;3.20;;
2720;SDS011;1368;49.484;11.112;2023-04-03T08:53:28;6.33;;;3.63;;
2720;SDS011;1368;49.484;11.112;2023-04-03T08:55:57;5.13;;;3.63;;
2720;SDS011;1368;49.484;11.112;2023-04-03T08:58:28;8.20;;;3.47;;
2720;SDS011;1368;49.484;11.112;2023-04-03T09:00:57;6.70;;;4.00;;
2720;SDS011;1368;49.484;11.112;2023-04-03T09:03:28;6.47;;;3.67;;
2720;SDS011;1368;49.484;11.112;2023-04-03T09:08:43;5.50;;;3.90;;
2720;SDS011;1368;49.484;11.112;2023-04-03T09:13:57;9.37;;;3.40;;
2720;SDS011;1368;49.484;11.112;2023-04-03T09:16:39;4.07;;;2.70;;
2720;SDS011;1368;49.484;11.112;2023-04-03T09:19:33;5.23;;;3.47;;
2720;SDS011;1368;49.484;11.112;2023-04-03T09:24:47;6.00;;;3.47;;
2720;SDS011;1368;49.484;11.112;2023-04-03T09:27:17;9.53;;;3.93;;
2720;SDS011;1368;49.484;11.112;2023-04-03T09:29:43;6.50;;;3.57;;
2720;SDS011;1368;49.484;11.112;2023-04-03T09:32:29;6.67;;;3.27;;
2720;SDS011;1368;49.484;11.112;2023-04-03T09:34:57;7.50;;;3.53;;
2720;SDS011;1368;49.484;11.112;2023-04-03T09:40:05;5.30;;;2.70;;
2720;SDS011;1368;49.484;11.112;2023-04-03T09:43:37;7.70;;;3.13;;
2720;SDS011;1368;49.484;11.112;2023-04-03T09:45:43;5.83;;;3.37;;
2720;SDS011;1368;49.484;11.112;2023-04-03T09:53:37;4.90;;;2.93;;
2720;SDS011;1368;49.484;11.112;2023-04-03T09:58:42;4.97;;;2.73;;
2720;SDS011;1368;49.484;11.112;2023-04-03T10:06:41;8.93;;;3.73;;
2720;SDS011;1368;49.484;11.112;2023-04-03T10:14:29;5.80;;;2.90;;
2720;SDS011;1368;49.484;11.112;2023-04-03T10:16:58;5.33;;;3.00;;
2720;SDS011;1368;49.484;11.112;2023-04-03T10:22:19;5.80;;;3.03;;
2720;SDS011;1368;49.484;11.112;2023-04-03T10:27:40;5.87;;;3.07;;
2720;SDS011;1368;49.484;11.112;2023-04-03T10:35:39;4.97;;;2.10;;
2720;SDS011;1368;49.484;11.112;2023-04-03T10:41:23;5.83;;;3.37;;
2720;SDS011;1368;49.484;11.112;2023-04-03T10:52:57;4.57;;;3.10;;
2720;SDS011;1368;49.484;11.112;2023-04-03T10:59:25;3.77;;;2.50;;
2720;SDS011;1368;49.484;11.112;2023-04-03T11:01:33;4.63;;;2.53;;
2720;SDS011;1368;49.484;11.112;2023-04-03T11:04:03;5.00;;;2.90;;
2720;SDS011;1368;49.484;11.112;2023-04-03T11:06:32;3.27;;;2.13;;
2720;SDS011;1368;49.484;11.112;2023-04-03T11:09:05;5.73;;;2.90;;
2720;SDS011;1368;49.484;11.112;2023-04-03T11:11:41;4.07;;;2.73;;
2720;SDS011;1368;49.484;11.112;2023-04-03T11:16:45;5.40;;;2.90;;
2720;SDS011;1368;49.484;11.112;2023-04-03T11:19:17;10.53;;;2.77;;
2720;SDS011;1368;49.484;11.112;2023-04-03T11:21:51;5.60;;;2.93;;
2720;SDS011;1368;49.484;11.112;2023-04-03T11:24:46;6.60;;;2.50;;
2720;SDS011;1368;49.484;11.112;2023-04-03T11:27:22;8.97;;;3.70;;
2720;SDS011;1368;49.484;11.112;2023-04-03T11:29:50;4.50;;;2.93;;
2720;SDS011;1368;49.484;11.112;2023-04-03T11:35:11;4.63;;;2.73;;
2720;SDS011;1368;49.484;11.112;2023-04-03T11:37:39;5.07;;;2.60;;
2720;SDS011;1368;49.484;11.112;2023-04-03T11:42:41;2.90;;;1.93;;
2720;SDS011;1368;49.484;11.112;2023-04-03T11:47:55;4.80;;;3.20;;
2720;SDS011;1368;49.484;11.112;2023-04-03T11:53:15;3.60;;;2.27;;
2720;SDS011;1368;49.484;11.112;2023-04-03T11:55:56;3.97;;;2.40;;
2720;SDS011;1368;49.484;11.112;2023-04-03T11:58:31;7.80;;;3.10;;
2720;SDS011;1368;49.484;11.112;2023-04-03T12:05:50;4.30;;;2.50;;
2720;SDS011;1368;49.484;11.112;2023-04-03T12:13:36;4.73;;;2.97;;
2720;SDS011;1368;49.484;11.112;2023-04-03T12:16:03;6.50;;;3.00;;
2720;SDS011;1368;49.484;11.112;2023-04-03T12:21:14;4.90;;;2.87;;
2720;SDS011;1368;49.484;11.112;2023-04-03T12:26:34;4.10;;;2.80;;
2720;SDS011;1368;49.484;11.112;2023-04-03T12:29:24;3.20;;;2.37;;
2720;SDS011;1368;49.484;11.112;2023-04-03T12:34:44;6.13;;;2.63;;
2720;SDS011;1368;49.484;11.112;2023-04-03T12:37:32;6.10;;;3.00;;
2720;SDS011;1368;49.484;11.112;2023-04-03T12:40:21;3.17;;;2.13;;
2720;SDS011;1368;49.484;11.112;2023-04-03T12:45:41;3.57;;;2.30;;
2720;SDS011;1368;49.484;11.112;2023-04-03T12:48:16;5.20;;;2.43;;
2720;SDS011;1368;49.484;11.112;2023-04-03T12:50:46;5.10;;;2.57;;
2720;SDS011;1368;49.484;11.112;2023-04-03T12:53:13;5.40;;;2.97;;
2720;SDS011;1368;49.484;11.112;2023-04-03T12:55:46;3.60;;;2.43;;
2720;SDS011;1368;49.484;11.112;2023-04-03T12:58:15;5.23;;;2.50;;
2720;SDS011;1368;49.484;11.112;2023-04-03T13:01:02;4.60;;;2.53;;
2720;SDS011;1368;49.484;11.112;2023-04-03T13:03:36;4.87;;;2.60;;
2720;SDS011;1368;49.484;11.112;2023-04-03T13:06:04;5.23;;;2.83;;
2720;SDS011;1368;49.484;11.112;2023-04-03T13:08:31;5.90;;;3.40;;
2720;SDS011;1368;49.484;11.112;2023-04-03T13:10:59;4.60;;;2.90;;
2720;SDS011;1368;49.484;11.112;2023-04-03T13:13:28;5.73;;;2.47;;
2720;SDS011;1368;49.484;11.112;2023-04-03T13:15:54;4.63;;;2.43;;
2720;SDS011;1368;49.484;11.112;2023-04-03T13:18:33;3.27;;;2.37;;
2720;SDS011;1368;49.484;11.112;2023-04-03T13:21:17;7.73;;;2.50;;
2720;SDS011;1368;49.484;11.112;2023-04-03T13:23:49;5.23;;;2.40;;
2720;SDS011;1368;49.484;11.112;2023-04-03T13:26:17;6.53;;;2.87;;
2720;SDS011;1368;49.484;11.112;2023-04-03T13:28:45;5.30;;;2.57;;
2720;SDS011;1368;49.484;11.112;2023-04-03T13:33:38;4.67;;;2.90;;
2720;SDS011;1368;49.484;11.112;2023-04-03T13:36:22;4.27;;;2.23;;
2720;SDS011;1368;49.484;11.112;2023-04-03T13:41:35;4.43;;;2.47;;
2720;SDS011;1368;49.484;11.112;2023-04-03T13:44:16;4.03;;;2.80;;
2720;SDS011;1368;49.484;11.112;2023-04-03T13:46:48;10.60;;;2.90;;
2720;SDS011;1368;49.484;11.112;2023-04-03T13:49:35;5.23;;;2.60;;
2720;SDS011;1368;49.484;11.112;2023-04-03T13:52:25;7.63;;;3.60;;
2720;SDS011;1368;49.484;11.112;2023-04-03T13:54:53;4.63;;;2.30;;
2720;SDS011;1368;49.484;11.112;2023-04-03T13:57:24;5.20;;;2.87;;
2720;SDS011;1368;49.484;11.112;2023-04-03T13:59:51;12.73;;;3.33;;
2720;SDS011;1368;49.484;11.112;2023-04-03T14:02:29;3.30;;;2.30;;
2720;SDS011;1368;49.484;11.112;2023-04-03T14:04:59;4.97;;;2.80;;
2720;SDS011;1368;49.484;11.112;2023-04-03T14:07:27;3.60;;;2.37;;
2720;SDS011;1368;49.484;11.112;2023-04-03T14:09:55;5.53;;;3.03;;
2720;SDS011;1368;49.484;11.112;2023-04-03T14:12:24;4.33;;;2.83;;
2720;SDS011;1368;49.484;11.112;2023-04-03T14:15:00;3.47;;;2.33;;
2720;SDS011;1368;49.484;11.112;2023-04-03T14:17:26;5.17;;;2.70;;
2720;SDS011;1368;49.484;11.112;2023-04-03T14:19:53;4.00;;;2.60;;
2720;SDS011;1368;49.484;11.112;2023-04-03T14:22:24;4.10;;;2.53;;
2720;SDS011;1368;49.484;11.112;2023-04-03T14:24:53;5.23;;;2.50;;
2720;SDS011;1368;49.484;11.112;2023-04-03T14:29:46;7.23;;;3.40;;
2720;SDS011;1368;49.484;11.112;2023-04-03T14:32:13;5.03;;;3.00;;
2720;SDS011;1368;49.484;11.112;2023-04-03T14:34:41;2.83;;;2.10;;
2720;SDS011;1368;49.484;11.112;2023-04-03T14:37:12;5.23;;;3.03;;
2720;SDS011;1368;49.484;11.112;2023-04-03T14:39:39;5.17;;;3.07;;
2720;SDS011;1368;49.484;11.112;2023-04-03T14:42:06;5.37;;;2.87;;
2720;SDS011;1368;49.484;11.112;2023-04-03T14:44:40;3.93;;;2.53;;
2720;SDS011;1368;49.484;11.112;2023-04-03T14:47:08;3.50;;;2.20;;
2720;SDS011;1368;49.484;11.112;2023-04-03T14:49:38;6.03;;;2.60;;
2720;SDS011;1368;49.484;11.112;2023-04-03T14:52:04;8.23;;;2.80;;
2720;SDS011;1368;49.484;11.112;2023-04-03T14:54:30;5.13;;;2.60;;
2720;SDS011;1368;49.484;11.112;2023-04-03T14:56:57;5.07;;;2.70;;
2720;SDS011;1368;49.484;11.112;2023-04-03T14:59:24;3.93;;;2.80;;
2720;SDS011;1368;49.484;11.112;2023-04-03T15:01:50;5.53;;;2.77;;
2720;SDS011;1368;49.484;11.112;2023-04-03T15:04:17;8.10;;;2.87;;
2720;SDS011;1368;49.484;11.112;2023-04-03T15:06:45;4.10;;;2.67;;
2720;SDS011;1368;49.484;11.112;2023-04-03T15:11:48;5.00;;;2.70;;
2720;SDS011;1368;49.484;11.112;2023-04-03T15:14:15;6.53;;;3.50;;
2720;SDS011;1368;49.484;11.112;2023-04-03T15:16:41;7.03;;;3.70;;
2720;SDS011;1368;49.484;11.112;2023-04-03T15:19:06;4.90;;;3.00;;
2720;SDS011;1368;49.484;11.112;2023-04-03T15:21:32;6.53;;;3.33;;
2720;SDS011;1368;49.484;11.112;2023-04-03T15:23:57;5.00;;;3.07;;
2720;SDS011;1368;49.484;11.112;2023-04-03T15:26:23;3.77;;;2.90;;
2720;SDS011;1368;49.484;11.112;2023-04-03T15:28:50;4.83;;;2.60;;
2720;SDS011;1368;49.484;11.112;2023-04-03T15:31:15;5.63;;;2.90;;
2720;SDS011;1368;49.484;11.112;2023-04-03T15:33:41;4.10;;;2.70;;
2720;SDS011;1368;49.484;11.112;2023-04-03T15:36:07;4.40;;;2.53;;
2720;SDS011;1368;49.484;11.112;2023-04-03T15:38:32;4.87;;;3.10;;
2720;SDS011;1368;49.484;11.112;2023-04-03T15:40:58;6.07;;;3.60;;
2720;SDS011;1368;49.484;11.112;2023-04-03T15:43:24;4.50;;;2.43;;
2720;SDS011;1368;49.484;11.112;2023-04-03T15:45:50;6.37;;;3.40;;
2720;SDS011;1368;49.484;11.112;2023-04-03T15:48:16;5.50;;;3.20;;
2720;SDS011;1368;49.484;11.112;2023-04-03T15:50:42;5.83;;;3.10;;
2720;SDS011;1368;49.484;11.112;2023-04-03T15:53:08;7.97;;;2.87;;
2720;SDS011;1368;49.484;11.112;2023-04-03T15:55:36;4.60;;;2.53;;
2720;SDS011;1368;49.484;11.112;2023-04-03T15:58:02;6.43;;;2.67;;
2720;SDS011;1368;49.484;11.112;2023-04-03T16:00:29;4.47;;;2.97;;
2720;SDS011;1368;49.484;11.112;2023-04-03T16:02:57;5.00;;;2.93;;
2720;SDS011;1368;49.484;11.112;2023-04-03T16:05:26;4.60;;;2.90;;
2720;SDS011;1368;49.484;11.112;2023-04-03T16:07:52;4.90;;;2.83;;
2720;SDS011;1368;49.484;11.112;2023-04-03T16:10:18;5.47;;;2.83;;
2720;SDS011;1368;49.484;11.112;2023-04-03T16:12:45;5.83;;;3.30;;
2720;SDS011;1368;49.484;11.112;2023-04-03T16:15:10;6.00;;;3.17;;
2720;SDS011;1368;49.484;11.112;2023-04-03T16:17:36;4.90;;;2.70;;
2720;SDS011;1368;49.484;11.112;2023-04-03T16:20:04;5.80;;;2.87;;
2720;SDS011;1368;49.484;11.112;2023-04-03T16:22:31;6.87;;;3.10;;
2720;SDS011;1368;49.484;11.112;2023-04-03T16:24:57;6.30;;;3.13;;
2720;SDS011;1368;49.484;11.112;2023-04-03T16:27:23;6.13;;;2.80;;
2720;SDS011;1368;49.484;11.112;2023-04-03T16:29:52;6.13;;;2.40;;
2720;SDS011;1368;49.484;11.112;2023-04-03T16:32:19;3.90;;;2.43;;
2720;SDS011;1368;49.484;11.112;2023-04-03T16:34:45;5.70;;;2.73;;
2720;SDS011;1368;49.484;11.112;2023-04-03T16:37:10;5.70;;;2.90;;
2720;SDS011;1368;49.484;11.112;2023-04-03T16:39:36;4.97;;;2.60;;
2720;SDS011;1368;49.484;11.112;2023-04-03T16:42:02;6.80;;;2.80;;
2720;SDS011;1368;49.484;11.112;2023-04-03T16:44:27;7.43;;;3.03;;
2720;SDS011;1368;49.484;11.112;2023-04-03T16:46:53;5.33;;;2.60;;
2720;SDS011;1368;49.484;11.112;2023-04-03T16:49:18;5.27;;;2.90;;
2720;SDS011;1368;49.484;11.112;2023-04-03T16:51:44;5.53;;;2.73;;
2720;SDS011;1368;49.484;11.112;2023-04-03T16:54:10;6.90;;;2.60;;
2720;SDS011;1368;49.484;11.112;2023-04-03T16:56:38;6.80;;;3.10;;
2720;SDS011;1368;49.484;11.112;2023-04-03T16:59:04;5.20;;;3.20;;